createdAt,value
2019-02-05T00:00:24.278Z,84.22
2019-02-05T00:01:08.237Z,84.78
2019-02-05T00:01:49.101Z,84.98
2019-02-05T00:12:31.930Z,84.41
2019-02-05T00:13:16.055Z,84.03
2019-02-05T00:13:58.448Z,84.41
2019-02-05T00:14:39.091Z,84.5
2019-02-05T00:15:22.841Z,84.88
2019-02-05T00:16:03.276Z,85.74
2019-02-05T00:16:50.280Z,85.45
2019-02-05T00:17:27.004Z,86.87
2019-02-05T00:20:40.464Z,85.74
2019-02-05T00:21:29.535Z,86.02
2019-02-05T00:22:19.431Z,85.26
2019-02-05T00:23:05.117Z,84.78
2019-02-05T00:23:47.609Z,84.69
2019-02-05T00:24:28.837Z,84.31
2019-02-05T00:25:09.226Z,84.59
2019-02-05T00:25:50.838Z,84.5
2019-02-05T00:26:31.040Z,84.78
2019-02-05T00:27:11.366Z,85.17
2019-02-05T00:27:53.055Z,85.17
2019-02-05T00:28:36.017Z,85.55
2019-02-05T00:29:16.319Z,85.45
2019-02-05T00:29:56.801Z,85.74
2019-02-05T00:30:39.073Z,86.21
2019-02-05T00:31:19.553Z,86.11
2019-02-05T00:32:00.012Z,85.93
2019-02-05T00:32:41.837Z,85.55
2019-02-05T00:33:22.212Z,86.21
2019-02-05T00:34:20.410Z,85.74
2019-02-05T00:35:06.429Z,85.07
2019-02-05T00:35:49.093Z,84.78
2019-02-05T00:36:30.306Z,84.88
2019-02-05T00:37:12.411Z,85.17
2019-02-05T00:37:53.563Z,84.59
2019-02-05T00:38:33.809Z,84.03
2019-02-05T00:45:53.722Z,85.26
2019-02-05T00:46:43.637Z,84.12
2019-02-05T00:47:33.346Z,84.31
2019-02-05T00:48:18.638Z,84.69
2019-02-05T00:49:12.868Z,85.07
2019-02-05T00:51:14.678Z,84.78
2019-02-05T00:53:16.575Z,84.78
2019-02-05T00:54:11.926Z,84.22
2019-02-05T00:56:34.666Z,85.26
2019-02-05T00:57:25.047Z,83.74
2019-02-05T01:02:20.610Z,83.97
2019-02-05T01:03:13.535Z,83.78
2019-02-05T01:03:57.845Z,83.78
2019-02-05T01:04:49.208Z,83.88
2019-02-05T01:07:01.899Z,84.26
2019-02-05T01:10:25.604Z,83.31
2019-02-05T01:11:15.713Z,82.84
2019-02-05T01:14:24.147Z,83.88
2019-02-05T01:16:53.228Z,83.78
2019-02-05T01:17:38.533Z,83.97
2019-02-05T01:18:32.846Z,84.45
2019-02-05T01:19:24.543Z,83.97
2019-02-05T01:20:26.796Z,83.97
2019-02-05T01:31:34.386Z,84.83
2019-02-05T01:32:16.610Z,84.45
2019-02-05T01:32:56.978Z,83.78
2019-02-05T01:33:37.360Z,83.12
2019-02-05T01:34:17.807Z,82.93
2019-02-05T01:34:58.226Z,82.65
2019-02-05T01:35:38.629Z,82.74
2019-02-05T01:36:19.028Z,83.69
2019-02-05T01:36:59.414Z,83.03
2019-02-05T01:37:39.864Z,82.74
2019-02-05T01:38:22.410Z,83.12
2019-02-05T01:39:02.583Z,82.93
2019-02-05T01:39:42.981Z,83.03
2019-02-05T01:40:27.135Z,83.69
2019-02-05T01:41:10.948Z,83.12
2019-02-05T01:44:41.999Z,83.88
2019-02-05T01:45:34.955Z,83.5
2019-02-05T01:46:27.487Z,83.31
2019-02-05T01:47:21.004Z,83.78
2019-02-05T01:48:15.553Z,83.97
2019-02-05T01:49:08.215Z,83.88
2019-02-05T01:50:01.191Z,84.07
2019-02-05T01:50:53.606Z,84.17
2019-02-05T01:51:46.100Z,83.97
2019-02-05T01:52:38.659Z,84.17
2019-02-05T01:53:31.016Z,84.07
2019-02-05T01:54:23.758Z,84.26
2019-02-05T01:55:16.237Z,84.17
2019-02-05T01:56:10.687Z,84.74
2019-02-05T01:57:06.165Z,84.36
2019-02-05T01:59:31.298Z,83.69
2019-02-05T02:00:11.573Z,83.88
2019-02-05T02:00:51.996Z,84.17
2019-02-05T02:01:32.465Z,85.02
2019-02-05T02:02:12.924Z,84.87
2019-02-05T02:02:53.300Z,84.74
2019-02-05T02:03:33.693Z,84.55
2019-02-05T02:04:14.084Z,84.4
2019-02-05T02:04:54.538Z,84.21
2019-02-05T02:05:34.935Z,83.73
2019-02-05T02:06:15.337Z,83.16
2019-02-05T02:06:55.780Z,83.07
2019-02-05T02:07:36.154Z,82.59
2019-02-05T02:08:16.534Z,82.03
2019-02-05T02:08:56.966Z,81.55
2019-02-05T02:09:37.339Z,82.31
2019-02-05T02:10:17.861Z,82.69
2019-02-05T02:10:58.232Z,82.88
2019-02-05T02:11:38.673Z,82.59
2019-02-05T02:12:19.068Z,82.69
2019-02-05T02:12:59.535Z,82.21
2019-02-05T02:13:39.802Z,82.21
2019-02-05T02:14:20.186Z,81.55
2019-02-05T02:15:00.646Z,81.65
2019-02-05T02:15:41.141Z,81.45
2019-02-05T02:16:21.532Z,81.55
2019-02-05T02:17:01.921Z,81.65
2019-02-05T02:17:42.313Z,81.55
2019-02-05T02:18:22.724Z,81.36
2019-02-05T02:19:03.149Z,81.55
2019-02-05T02:19:43.669Z,81.55
2019-02-05T02:20:24.057Z,81.68
2019-02-05T02:22:18.719Z,82.26
2019-02-05T02:23:18.355Z,82.26
2019-02-05T02:24:10.993Z,82.07
2019-02-05T02:25:04.158Z,82.54
2019-02-05T02:25:56.620Z,82.35
2019-02-05T02:26:51.924Z,82.73
2019-02-05T02:27:41.590Z,82.82
2019-02-05T02:28:35.368Z,83.07
2019-02-05T02:29:27.580Z,83.07
2019-02-05T02:30:20.395Z,83.36
2019-02-05T02:31:14.621Z,85.06
2019-02-05T02:32:32.767Z,85.82
2019-02-05T02:33:36.708Z,85.06
2019-02-05T02:34:29.122Z,85.82
2019-02-05T02:35:21.356Z,85.72
2019-02-05T02:36:13.462Z,85.82
2019-02-05T02:37:07.041Z,85.82
2019-02-05T02:37:59.879Z,86.3
2019-02-05T02:38:51.697Z,86.39
2019-02-05T02:39:43.963Z,86.2
2019-02-05T02:40:36.211Z,86.11
2019-02-05T02:41:28.188Z,86.11
2019-02-05T02:42:20.012Z,86.58
2019-02-05T02:43:12.763Z,86.39
2019-02-05T02:44:05.684Z,86.87
2019-02-05T02:44:58.126Z,87.43
2019-02-05T02:45:50.414Z,86.87
2019-02-05T02:46:42.454Z,86.87
2019-02-05T02:47:34.760Z,87.72
2019-02-05T02:48:26.813Z,87.53
2019-02-05T02:49:18.998Z,86.39
2019-02-05T02:50:11.318Z,87.15
2019-02-05T02:51:03.713Z,86.39
2019-02-05T02:51:55.590Z,86.96
2019-02-05T02:52:48.104Z,87.34
2019-02-05T02:53:40.247Z,87.43
2019-02-05T02:54:32.470Z,87.53
2019-02-05T02:55:24.681Z,87.91
2019-02-05T02:56:09.851Z,88.1
2019-02-05T02:56:50.306Z,87.82
2019-02-05T02:57:30.953Z,87.91
2019-02-05T02:58:13.541Z,87.53
2019-02-05T02:58:51.675Z,87.43
2019-02-05T03:04:07.872Z,89.72
2019-02-05T03:04:56.737Z,90.47
2019-02-05T03:05:39.173Z,90.38
2019-02-05T03:06:19.560Z,90.95
2019-02-05T03:06:59.956Z,91.33
2019-02-05T03:07:40.319Z,91.28
2019-02-05T03:08:20.746Z,90.9
2019-02-05T03:09:01.107Z,91.56
2019-02-05T03:09:41.542Z,92.09
2019-02-05T03:10:21.928Z,92.66
2019-02-05T03:11:02.331Z,93.04
2019-02-05T03:11:42.741Z,93.18
2019-02-05T03:12:23.133Z,93.56
2019-02-05T03:13:03.535Z,94.13
2019-02-05T03:13:43.908Z,93.94
2019-02-05T03:14:24.275Z,93.99
2019-02-05T03:15:04.689Z,93.84
2019-02-05T03:15:45.100Z,94.42
2019-02-05T03:16:25.512Z,94.51
2019-02-05T03:17:05.927Z,94.6
2019-02-05T03:17:46.279Z,94.79
2019-02-05T03:18:26.680Z,94.79
2019-02-05T03:19:07.028Z,94.79
2019-02-05T03:19:47.437Z,95.36
2019-02-05T03:20:27.819Z,94.89
2019-02-05T03:21:08.192Z,94.89
2019-02-05T03:21:48.572Z,94.51
2019-02-05T03:22:28.992Z,95.27
2019-02-05T03:23:09.356Z,94.51
2019-02-05T03:23:49.757Z,96.03
2019-02-05T03:24:30.302Z,96.12
2019-02-05T03:25:10.727Z,96.12
2019-02-05T03:25:51.127Z,96.5
2019-02-05T03:26:31.611Z,96.41
2019-02-05T03:27:17.562Z,96.03
2019-02-05T03:27:53.657Z,96.22
2019-02-05T03:28:32.791Z,96.22
2019-02-05T03:29:13.232Z,96.22
2019-02-05T03:29:53.565Z,96.31
2019-02-05T03:30:33.989Z,96.83
2019-02-05T03:31:14.412Z,96.22
2019-02-05T03:31:54.809Z,96.5
2019-02-05T03:32:35.179Z,96.45
2019-02-05T03:33:15.579Z,96.26
2019-02-05T03:33:55.975Z,95.36
2019-02-05T03:34:36.376Z,95.93
2019-02-05T03:35:16.768Z,96.26
2019-02-05T03:35:57.167Z,96.17
2019-02-05T03:36:37.546Z,96.45
2019-02-05T03:37:17.942Z,95.89
2019-02-05T03:37:58.342Z,95.41
2019-02-05T03:38:38.732Z,95.7
2019-02-05T03:39:19.108Z,96.26
2019-02-05T03:39:59.496Z,96.22
2019-02-05T03:40:39.899Z,96.78
2019-02-05T03:41:20.354Z,96.31
2019-02-05T03:42:00.711Z,97.26
2019-02-05T03:42:41.118Z,97.17
2019-02-05T03:43:21.507Z,96.97
2019-02-05T03:44:01.896Z,97.5
2019-02-05T03:44:42.298Z,97.07
2019-02-05T03:45:22.696Z,97.6
2019-02-05T03:46:04.639Z,97.45
2019-02-05T03:46:45.066Z,96.22
2019-02-05T03:47:25.483Z,97.26
2019-02-05T03:48:07.380Z,97.17
2019-02-05T03:48:48.532Z,98.07
2019-02-05T03:49:36.734Z,97.83
2019-02-05T03:50:19.861Z,97.41
2019-02-05T03:51:01.394Z,97.17
2019-02-05T03:51:46.586Z,97.36
2019-02-05T03:52:27.399Z,97.36
2019-02-05T03:53:08.533Z,97.74
2019-02-05T03:53:48.945Z,98.11
2019-02-05T03:54:29.553Z,98.4
2019-02-05T03:55:10.258Z,97.92
2019-02-05T03:55:51.153Z,98.21
2019-02-05T03:56:31.632Z,97.55
2019-02-05T03:57:12.449Z,97.92
2019-02-05T03:57:53.705Z,97.92
2019-02-05T03:58:36.719Z,97.97
2019-02-05T03:59:17.410Z,97.74
2019-02-05T03:59:57.929Z,97.92
2019-02-05T04:00:38.586Z,98.11
2019-02-05T04:01:19.694Z,98.3
2019-02-05T04:02:00.531Z,97.6
2019-02-05T04:02:42.113Z,97.92
2019-02-05T04:03:23.057Z,97.74
2019-02-05T04:04:04.310Z,97.92
2019-02-05T04:04:45.105Z,98.07
2019-02-05T04:05:25.733Z,97.07
2019-02-05T04:06:07.460Z,97.31
2019-02-05T04:06:48.244Z,97.26
2019-02-05T04:07:29.677Z,97.36
2019-02-05T04:08:11.432Z,98.16
2019-02-05T04:08:53.026Z,98.07
2019-02-05T04:09:35.569Z,98.07
2019-02-05T04:10:16.444Z,97.88
2019-02-05T04:10:58.784Z,99.21
2019-02-05T04:11:40.137Z,99.49
2019-02-05T04:12:21.438Z,99.49
2019-02-05T04:13:04.067Z,98.83
2019-02-05T04:13:44.474Z,97.97
2019-02-05T04:14:24.864Z,97.22
2019-02-05T04:15:05.289Z,96.26
2019-02-05T04:15:45.839Z,95.27
2019-02-05T04:16:26.125Z,95.27
2019-02-05T04:17:06.516Z,94.42
2019-02-05T04:17:46.920Z,93.08
2019-02-05T04:18:27.297Z,92.61
2019-02-05T04:19:07.692Z,91.94
2019-02-05T04:19:48.328Z,92.9
2019-02-05T04:20:29.618Z,93.75
2019-02-05T04:21:10.016Z,93.84
2019-02-05T04:21:50.428Z,93.56
2019-02-05T04:22:30.931Z,93.18
2019-02-05T04:23:11.324Z,92.9
2019-02-05T04:23:52.662Z,93.56
2019-02-05T04:24:36.860Z,93.94
2019-02-05T04:25:18.138Z,93.65
2019-02-05T05:06:05.813Z,99.99
2019-02-05T05:06:46.032Z,99.99
2019-02-05T05:07:26.508Z,99.99
2019-02-05T05:08:06.887Z,99.99
2019-02-05T05:08:47.287Z,99.99
2019-02-05T05:09:27.711Z,99.99
2019-02-05T05:10:08.225Z,99.99
2019-02-05T05:10:48.665Z,99.99
2019-02-05T05:11:29.064Z,99.99
2019-02-05T05:12:09.486Z,99.99
2019-02-05T05:12:49.949Z,99.99
2019-02-05T05:13:30.354Z,99.99
2019-02-05T05:14:10.742Z,99.99
2019-02-05T05:14:51.214Z,99.99
2019-02-05T05:15:31.648Z,99.99
2019-02-05T05:16:12.038Z,99.99
2019-02-05T05:16:52.420Z,99.99
2019-02-05T05:17:32.787Z,99.99
2019-02-05T05:18:15.450Z,99.99
2019-02-05T05:18:53.622Z,99.99
2019-02-05T05:19:34.012Z,99.99
2019-02-05T05:20:14.375Z,99.99
2019-02-05T05:20:54.776Z,99.99
2019-02-05T05:21:36.923Z,99.99
2019-02-05T05:22:17.342Z,99.99
2019-02-05T05:22:57.757Z,99.99
2019-02-05T05:23:38.190Z,99.99
2019-02-05T05:24:18.600Z,99.99
2019-02-05T05:24:59.045Z,99.99
2019-02-05T05:25:39.424Z,99.99
2019-02-05T05:26:19.841Z,99.99
2019-02-05T05:27:01.213Z,99.99
2019-02-05T05:27:44.936Z,99.99
2019-02-05T05:28:26.941Z,99.99
2019-02-05T05:29:12.800Z,99.99
2019-02-05T05:29:56.816Z,99.99
2019-02-05T05:30:46.278Z,99.99
2019-02-05T05:31:33.936Z,99.99
2019-02-05T05:32:23.619Z,99.99
2019-02-05T05:42:39.526Z,99.99
2019-02-05T05:43:20.942Z,99.99
2019-02-05T05:44:04.029Z,99.97
2019-02-05T05:44:44.423Z,99.99
2019-02-05T05:45:25.205Z,99.99
2019-02-05T05:46:05.962Z,99.99
2019-02-05T05:46:46.998Z,98.45
2019-02-05T05:47:27.371Z,99.02
2019-02-05T05:48:07.791Z,98.83
2019-02-05T05:48:48.144Z,99.21
2019-02-05T05:49:28.922Z,98.64
2019-02-05T05:50:09.305Z,98.83
2019-02-05T05:50:49.711Z,98.54
2019-02-05T05:51:30.192Z,99.21
2019-02-05T05:52:10.631Z,97.5
2019-02-05T05:52:51.001Z,98.45
2019-02-05T05:56:49.606Z,98.4
2019-02-05T05:57:38.603Z,97.41
2019-02-05T05:58:25.263Z,97.55
2019-02-05T06:00:28.818Z,97.31
2019-02-05T06:01:19.827Z,97.78
2019-02-05T06:02:11.008Z,97.5
2019-02-05T06:04:16.815Z,97.6
2019-02-05T06:05:10.939Z,97.22
2019-02-05T06:06:10.191Z,98.12
2019-02-05T06:10:57.500Z,96.17
2019-02-05T06:19:35.737Z,95.7
2019-02-05T06:31:03.898Z,98.64
2019-02-05T06:31:55.692Z,98.73
2019-02-05T06:34:36.023Z,99.4
2019-02-05T06:35:29.147Z,99.87
2019-02-05T06:36:26.228Z,99.87
2019-02-05T06:37:27.523Z,98.78
2019-02-05T06:38:21.428Z,98.78
2019-02-05T06:39:16.473Z,98.45
2019-02-05T06:40:09.409Z,99.58
2019-02-05T06:41:05.718Z,99.99
2019-02-05T06:41:59.450Z,99.99
2019-02-05T06:43:27.711Z,99.99
2019-02-05T06:45:56.636Z,99.99
2019-02-05T06:48:55.694Z,99.99
2019-02-05T06:49:52.400Z,99.99
2019-02-05T06:50:45.462Z,99.99
2019-02-05T06:51:41.736Z,99.99
2019-02-05T06:52:44.495Z,98.59
2019-02-05T06:53:40.153Z,98.31
2019-02-05T06:54:35.472Z,98.02
2019-02-05T06:57:15.197Z,96.22
2019-02-05T06:58:07.833Z,94.79
2019-02-05T06:59:00.834Z,95.27
2019-02-05T06:59:53.237Z,94.89
2019-02-05T07:00:46.353Z,94.46
2019-02-05T07:01:38.819Z,93.65
2019-02-05T07:02:31.387Z,93.37
2019-02-05T07:03:24.947Z,91.75
2019-02-05T07:04:19.814Z,93.84
2019-02-05T07:05:12.496Z,93.56
2019-02-05T07:06:07.397Z,93.46
2019-02-05T07:06:59.968Z,93.08
2019-02-05T07:07:52.427Z,92.99
2019-02-05T07:08:44.741Z,93.37
2019-02-05T07:09:37.378Z,93.75
2019-02-05T07:10:29.782Z,93.84
2019-02-05T07:11:22.368Z,94.03
2019-02-05T07:12:14.987Z,94.89
2019-02-05T07:13:08.749Z,95.27
2019-02-05T07:14:03.112Z,94.89
2019-02-05T07:14:56.147Z,94.6
2019-02-05T07:15:48.409Z,93.56
2019-02-05T07:16:41.947Z,92.99
2019-02-05T07:17:34.541Z,94.23
2019-02-05T07:18:29.867Z,93.65
2019-02-05T07:20:40.362Z,94.89
2019-02-05T07:21:33.168Z,94.32
2019-02-05T07:22:28.855Z,93.94
2019-02-05T07:23:24.593Z,93.18
2019-02-05T07:24:17.938Z,93.37
2019-02-05T07:25:11.314Z,93.6
2019-02-05T07:26:05.663Z,93.08
2019-02-05T07:27:01.923Z,94.27
2019-02-05T07:27:55.977Z,95.03
2019-02-05T07:30:30.066Z,92.18
2019-02-05T07:31:34.085Z,91.04
2019-02-05T07:32:32.784Z,90.47
2019-02-05T07:33:31.032Z,89.52
2019-02-05T07:34:27.687Z,89.33
2019-02-05T07:35:26.475Z,90.75
2019-02-05T07:36:27.909Z,89.61
2019-02-05T07:37:28.191Z,90.47
2019-02-05T07:38:27.709Z,90.94
2019-02-05T07:39:29.695Z,90.56
2019-02-05T07:40:24.920Z,92.18
2019-02-05T07:41:26.610Z,93.23
2019-02-05T07:42:26.214Z,91.89
2019-02-05T07:43:26.068Z,91.23
2019-02-05T07:44:23.826Z,90.28
2019-02-05T07:45:19.361Z,90.94
2019-02-05T07:46:22.751Z,92.18
2019-02-05T07:47:23.437Z,91.61
2019-02-05T07:48:21.402Z,91.61
2019-02-05T07:49:32.191Z,91.04
2019-02-05T07:50:31.960Z,90.56
2019-02-05T07:51:29.979Z,90.19
2019-02-05T08:04:46.013Z,91.33
2019-02-05T08:05:46.493Z,91.04
2019-02-05T08:12:26.614Z,93.84
2019-02-05T08:13:26.423Z,95.27
2019-02-05T08:14:23.601Z,95.94
2019-02-05T08:15:32.246Z,96.03
2019-02-05T08:20:13.505Z,93.51
2019-02-05T08:21:14.169Z,91.89
2019-02-05T08:22:11.644Z,93.23
2019-02-05T08:23:10.259Z,93.79
2019-02-05T08:24:08.304Z,93.6
2019-02-05T08:25:07.987Z,92.94
2019-02-05T08:26:06.490Z,91.71
2019-02-05T08:27:27.388Z,91.42
2019-02-05T08:28:39.434Z,91.33
2019-02-05T08:29:28.294Z,91.61
2019-02-05T08:30:29.584Z,92.08
2019-02-05T08:31:27.685Z,92.08
2019-02-05T08:32:23.967Z,94.18
2019-02-05T08:33:22.141Z,93.32
2019-02-05T08:34:38.231Z,94.27
2019-02-05T08:35:33.680Z,94.46
2019-02-05T08:36:31.659Z,93.13
2019-02-05T08:37:32.890Z,92.37
2019-02-05T08:38:40.652Z,91.99
2019-02-05T08:39:43.366Z,91.99
2019-02-05T08:40:48.922Z,92.56
2019-02-05T08:41:55.048Z,92.94
2019-02-05T08:43:01.081Z,92.08
2019-02-05T08:44:04.764Z,91.99
2019-02-05T08:45:01.635Z,90.75
2019-02-05T08:45:57.826Z,91.52
2019-02-05T08:46:51.524Z,92.08
2019-02-05T08:47:44.086Z,92.66
2019-02-05T08:48:43.628Z,92.37
2019-02-05T08:49:37.699Z,91.23
2019-02-05T08:50:32.305Z,92.18
2019-02-05T08:51:27.747Z,92.46
2019-02-05T08:52:24.582Z,93.13
2019-02-05T08:53:26.652Z,92.56
2019-02-05T08:54:23.177Z,91.89
2019-02-05T08:56:17.153Z,91.28
2019-02-05T08:57:15.974Z,90.42
2019-02-05T08:58:30.499Z,90.19
2019-02-05T08:59:21.307Z,89.8
2019-02-05T09:00:17.797Z,89.61
2019-02-05T09:01:16.399Z,89.52
2019-02-05T09:02:08.947Z,89.9
2019-02-05T09:03:04.533Z,90.66
2019-02-05T09:04:04.145Z,90.66
2019-02-05T09:04:59.628Z,90.85
2019-02-05T09:05:57.745Z,91.13
2019-02-05T09:06:56.371Z,91.23
2019-02-05T09:07:56.873Z,91.13
2019-02-05T09:08:57.905Z,93.23
2019-02-05T09:09:56.813Z,94.56
2019-02-05T09:10:55.512Z,94.27
2019-02-05T09:11:52.065Z,92.75
2019-02-05T09:12:49.421Z,92.37
2019-02-05T09:20:04.610Z,93.41
2019-02-05T09:20:58.314Z,93.6
2019-02-05T09:21:51.154Z,93.6
2019-02-05T09:22:44.548Z,94.08
2019-02-05T09:24:51.266Z,95.12
2019-02-05T09:25:45.422Z,96.17
2019-02-05T09:26:38.996Z,95.41
2019-02-05T09:27:37.309Z,94.37
2019-02-05T09:28:34.963Z,95.12
2019-02-05T09:29:33.310Z,95.89
2019-02-05T09:30:23.416Z,95.51
2019-02-05T09:31:19.650Z,95.32
2019-02-05T09:32:16.324Z,96.08
2019-02-05T09:33:13.477Z,96.08
2019-02-05T09:34:08.094Z,95.98
2019-02-05T09:35:04.405Z,95.79
2019-02-05T09:36:07.638Z,96.26
2019-02-05T09:37:08.170Z,95.98
2019-02-05T09:38:02.611Z,95.7
2019-02-05T09:46:18.195Z,94.56
2019-02-05T09:47:12.885Z,96.65
2019-02-05T09:48:11.692Z,98.17
2019-02-05T09:49:05.200Z,98.45
2019-02-05T09:51:14.776Z,97.6
2019-02-05T09:52:13.236Z,97.31
2019-02-05T09:53:14.963Z,97.31
2019-02-05T09:54:13.877Z,98.07
2019-02-05T09:55:12.898Z,97.78
2019-02-05T09:56:07.431Z,98.07
2019-02-05T09:57:02.539Z,98.07
2019-02-05T09:58:03.501Z,98.55
2019-02-05T09:59:59.157Z,98.07
2019-02-05T10:00:52.514Z,98.36
2019-02-05T10:01:50.434Z,97.6
2019-02-05T10:02:45.691Z,96.55
2019-02-05T10:03:42.078Z,97.6
2019-02-05T10:04:36.675Z,94.74
2019-02-05T10:05:31.633Z,96.17
2019-02-05T10:06:25.597Z,96.08
2019-02-05T10:07:20.886Z,95.6
2019-02-05T10:08:15.273Z,94.93
2019-02-05T10:09:09.026Z,94.93
2019-02-05T10:10:02.853Z,96.84
2019-02-05T10:10:55.004Z,96.55
2019-02-05T10:11:49.540Z,95.89
2019-02-05T10:12:49.495Z,95.98
2019-02-05T10:13:46.053Z,95.41
2019-02-05T10:14:44.624Z,95.98
2019-02-05T10:15:39.664Z,96.08
2019-02-05T10:16:37.645Z,95.79
2019-02-05T10:17:37.495Z,96.55
2019-02-05T10:18:35.383Z,96.74
2019-02-05T10:25:42.895Z,94.6
2019-02-05T10:26:36.189Z,93.89
2019-02-05T10:27:32.322Z,94.37
2019-02-05T10:28:29.853Z,93.51
2019-02-05T11:07:59.374Z,98.69
2019-02-05T11:08:55.371Z,99.73
2019-02-05T11:16:17.999Z,99.26
2019-02-05T11:17:20.843Z,99.99
2019-02-05T11:19:57.072Z,98.93
2019-02-05T11:22:49.880Z,99.21
2019-02-05T11:23:45.777Z,99.3
2019-02-05T11:25:02.682Z,98.93
2019-02-05T11:26:09.075Z,98.55
2019-02-05T11:27:03.015Z,97.97
2019-02-05T11:27:58.474Z,97.41
2019-02-05T11:28:53.932Z,97.41
2019-02-05T11:29:49.121Z,98.17
2019-02-05T11:30:42.508Z,97.31
2019-02-05T11:31:39.447Z,96.74
2019-02-05T11:32:32.955Z,97.31
2019-02-05T11:33:29.307Z,95.6
2019-02-05T11:34:23.794Z,96.17
2019-02-05T11:35:17.582Z,96.55
2019-02-05T11:36:12.638Z,96.17
2019-02-05T11:38:17.145Z,94.93
2019-02-05T11:39:10.041Z,93.79
2019-02-05T11:40:03.342Z,93.51
2019-02-05T11:40:58.746Z,94.08
2019-02-05T11:41:54.252Z,93.89
2019-02-05T11:42:52.841Z,95.41
2019-02-05T11:43:46.638Z,96.65
2019-02-05T11:44:41.172Z,95.6
2019-02-05T11:45:35.160Z,94.84
2019-02-05T12:05:21.039Z,94.74
2019-02-05T17:25:21.519Z,99.99
2019-02-05T17:40:21.018Z,99.99
2019-02-05T17:41:03.197Z,99.99
2019-02-05T17:41:47.398Z,99.99
2019-02-05T17:42:27.757Z,99.99
2019-02-05T17:43:09.909Z,99.78
2019-02-05T17:43:50.633Z,99.5
2019-02-05T17:44:33.596Z,98.64
2019-02-05T17:48:53.512Z,99.78
2019-02-05T17:58:52.922Z,99.3
2019-02-05T17:59:44.475Z,99.99
2019-02-05T23:13:36.837Z,99.99
2019-02-05T23:20:55.174Z,99.99
2019-02-05T23:22:57.053Z,99.99
2019-02-05T23:25:07.224Z,99.99
2019-02-05T23:27:03.998Z,99.87
2019-02-05T23:27:54.880Z,99.99
2019-02-05T23:28:44.097Z,99.58
2019-02-05T23:31:22.623Z,99.39
2019-02-05T23:44:01.707Z,98.07
